createdAt,value
2022-11-13T00:02:34.980Z,10.69
2022-11-13T00:05:20.465Z,10.41
2022-11-13T00:08:05.731Z,9.84
2022-11-13T00:10:51.156Z,10.05
2022-11-13T00:13:37.097Z,10.24
2022-11-13T00:16:22.446Z,10.50
2022-11-13T00:19:08.371Z,9.62
2022-11-13T00:21:55.128Z,10.97
2022-11-13T00:24:41.024Z,11.35
2022-11-13T00:27:26.329Z,10.45
2022-11-13T00:30:17.844Z,9.90
2022-11-13T00:33:04.378Z,9.87
2022-11-13T00:35:49.886Z,9.29
2022-11-13T00:38:35.472Z,10.73
2022-11-13T00:41:20.458Z,10.34
2022-11-13T00:44:05.956Z,11.04
2022-11-13T00:46:51.233Z,10.13
2022-11-13T00:49:32.051Z,10.32
2022-11-13T00:52:17.389Z,11.05
2022-11-13T00:55:02.673Z,9.89
2022-11-13T00:57:48.076Z,10.51
2022-11-13T01:00:33.603Z,10.76
2022-11-13T01:03:18.965Z,11.07
2022-11-13T01:06:16.862Z,10.98
2022-11-13T01:09:02.145Z,10.81
2022-11-13T01:11:47.253Z,11.63
2022-11-13T01:14:32.522Z,10.60
2022-11-13T01:17:17.896Z,6.57
2022-11-13T01:20:04.233Z,9.81
2022-11-13T01:22:49.645Z,10.64
2022-11-13T01:25:34.673Z,10.73
2022-11-13T01:28:20.067Z,9.39
2022-11-13T01:31:07.753Z,10.59
2022-11-13T01:33:52.761Z,8.60
2022-11-13T01:36:38.061Z,7.81
2022-11-13T01:39:23.724Z,7.97
2022-11-13T01:42:09.129Z,10.54
2022-11-13T01:44:59.769Z,10.29
2022-11-13T01:47:45.089Z,9.73
2022-11-13T01:50:30.551Z,8.46
2022-11-13T01:53:16.448Z,7.04
2022-11-13T01:56:02.652Z,9.51
2022-11-13T01:58:54.437Z,8.09
2022-11-13T02:01:40.986Z,9.17
2022-11-13T02:04:28.327Z,10.00
2022-11-13T02:07:16.701Z,9.02
2022-11-13T02:10:01.905Z,10.31
2022-11-13T02:12:51.540Z,10.49
2022-11-13T02:15:36.849Z,11.10
2022-11-13T02:18:24.614Z,11.18
2022-11-13T02:21:28.985Z,9.73
2022-11-13T02:24:32.490Z,10.47
2022-11-13T02:27:34.161Z,7.98
2022-11-13T02:30:29.439Z,9.76
2022-11-13T02:33:30.883Z,10.02
2022-11-13T02:36:17.047Z,8.95
2022-11-13T02:39:06.750Z,7.69
2022-11-13T02:41:51.746Z,8.61
2022-11-13T02:44:37.256Z,7.92
2022-11-13T02:47:22.337Z,4.68
2022-11-13T02:50:08.616Z,5.31
2022-11-13T02:52:54.003Z,7.10
2022-11-13T02:55:39.950Z,6.22
2022-11-13T02:58:26.812Z,7.22
2022-11-13T03:01:12.522Z,5.91
2022-11-13T03:03:58.582Z,5.85
2022-11-13T03:06:44.592Z,7.60
2022-11-13T03:09:30.157Z,7.10
2022-11-13T03:12:15.306Z,6.31
2022-11-13T03:15:00.906Z,8.23
2022-11-13T03:17:46.013Z,8.59
2022-11-13T03:20:31.733Z,7.10
2022-11-13T03:23:16.649Z,7.35
2022-11-13T03:26:07.964Z,7.36
2022-11-13T03:28:53.075Z,8.09
2022-11-13T03:31:38.385Z,5.79
2022-11-13T03:34:23.845Z,7.81
2022-11-13T03:37:09.106Z,8.99
2022-11-13T03:39:54.495Z,8.23
2022-11-13T03:42:40.413Z,7.94
2022-11-13T03:45:26.425Z,6.88
2022-11-13T03:48:13.980Z,8.02
2022-11-13T03:50:59.763Z,8.44
2022-11-13T03:53:45.030Z,8.94
2022-11-13T03:56:30.449Z,7.37
2022-11-13T03:59:15.652Z,7.05
2022-11-13T04:02:01.036Z,5.55
2022-11-13T04:04:46.284Z,7.20
2022-11-13T04:07:31.644Z,7.25
2022-11-13T04:10:17.551Z,7.70
2022-11-13T04:13:02.889Z,7.20
2022-11-13T04:15:48.175Z,6.04
2022-11-13T04:18:33.637Z,5.01
2022-11-13T04:21:18.936Z,7.71
2022-11-13T04:24:04.635Z,6.15
2022-11-13T04:26:49.611Z,4.85
2022-11-13T04:29:34.875Z,5.63
2022-11-13T04:32:20.177Z,6.10
2022-11-13T04:35:07.261Z,5.61
2022-11-13T04:37:52.823Z,7.51
2022-11-13T04:40:38.357Z,8.12
2022-11-13T04:43:23.366Z,7.89
2022-11-13T04:46:08.905Z,7.58
2022-11-13T04:48:54.064Z,7.55
2022-11-13T04:51:39.409Z,7.41
2022-11-13T04:54:28.690Z,5.90
2022-11-13T04:57:15.124Z,7.47
2022-11-13T05:00:00.730Z,6.74
2022-11-13T05:02:46.053Z,7.23
2022-11-13T05:05:31.413Z,7.00
2022-11-13T05:08:16.709Z,4.92
2022-11-13T05:11:04.033Z,4.00
2022-11-13T05:13:49.350Z,7.02
2022-11-13T05:16:37.757Z,5.89
2022-11-13T05:19:23.102Z,5.70
2022-11-13T05:22:09.288Z,5.84
2022-11-13T05:24:54.228Z,7.24
2022-11-13T05:27:39.528Z,5.26
2022-11-13T05:30:25.304Z,7.57
2022-11-13T05:33:10.367Z,7.55
2022-11-13T05:35:56.476Z,7.31
2022-11-13T05:38:42.522Z,7.85
2022-11-13T05:41:28.453Z,7.76
2022-11-13T05:44:13.732Z,8.69
2022-11-13T05:46:59.532Z,8.25
2022-11-13T05:49:45.140Z,8.32
2022-11-13T05:52:30.621Z,8.66
2022-11-13T05:55:15.927Z,4.85
2022-11-13T05:58:01.271Z,5.48
2022-11-13T06:00:46.705Z,7.01
2022-11-13T06:03:32.348Z,5.26
2022-11-13T06:06:19.657Z,5.06
2022-11-13T06:09:05.860Z,3.55
2022-11-13T06:11:51.045Z,7.39
2022-11-13T06:14:36.339Z,6.57
2022-11-13T06:17:21.656Z,7.24
2022-11-13T06:20:07.285Z,6.70
2022-11-13T06:22:52.712Z,4.09
2022-11-13T06:25:38.024Z,5.29
2022-11-13T06:28:23.185Z,5.46
2022-11-13T06:31:21.505Z,5.26
2022-11-13T06:34:06.585Z,6.82
2022-11-13T06:36:52.005Z,8.03
2022-11-13T06:39:37.313Z,9.05
2022-11-13T06:42:22.630Z,9.26
2022-11-13T06:45:08.669Z,7.31
2022-11-13T06:47:54.139Z,4.05
2022-11-13T06:50:40.924Z,5.09
2022-11-13T06:53:30.075Z,7.74
2022-11-13T06:56:16.218Z,7.86
2022-11-13T06:59:03.122Z,7.79
2022-11-13T07:01:53.433Z,8.16
2022-11-13T07:04:38.628Z,9.31
2022-11-13T07:07:23.885Z,9.70
2022-11-13T07:10:09.493Z,7.61
2022-11-13T07:12:55.016Z,6.50
2022-11-13T07:15:40.261Z,4.21
2022-11-13T07:18:25.695Z,7.62
2022-11-13T07:21:12.630Z,6.10
2022-11-13T07:23:59.070Z,6.06
2022-11-13T07:26:44.149Z,5.81
2022-11-13T07:29:30.346Z,6.93
2022-11-13T07:32:15.830Z,7.43
2022-11-13T07:35:01.472Z,7.53
2022-11-13T07:37:46.659Z,6.07
2022-11-13T07:40:31.821Z,7.63
2022-11-13T07:43:17.323Z,8.01
2022-11-13T07:46:02.798Z,10.16
2022-11-13T07:48:47.909Z,7.35
2022-11-13T07:51:33.214Z,7.26
2022-11-13T07:54:18.750Z,5.68
2022-11-13T07:57:04.131Z,8.73
2022-11-13T07:59:49.481Z,7.17
2022-11-13T08:02:34.836Z,7.68
2022-11-13T08:05:20.864Z,8.37
2022-11-13T08:08:06.729Z,6.58
2022-11-13T08:10:51.837Z,9.12
2022-11-13T08:13:38.087Z,11.02
2022-11-13T08:16:23.580Z,7.86
2022-11-13T08:19:08.675Z,7.15
2022-11-13T08:21:54.075Z,6.81
2022-11-13T08:24:39.335Z,9.97
2022-11-13T08:27:24.975Z,9.30
2022-11-13T08:30:10.593Z,7.85
2022-11-13T08:32:55.767Z,10.79
2022-11-13T08:35:41.309Z,10.32
2022-11-13T08:38:27.305Z,10.39
2022-11-13T08:41:14.908Z,8.59
2022-11-13T08:44:00.209Z,9.66
2022-11-13T08:46:46.060Z,8.64
2022-11-13T08:49:32.157Z,9.65
2022-11-13T08:52:17.469Z,10.41
2022-11-13T08:55:02.949Z,9.51
2022-11-13T08:57:48.186Z,9.11
2022-11-13T09:00:33.603Z,8.56
2022-11-13T09:03:18.785Z,8.17
2022-11-13T09:06:08.392Z,10.31
2022-11-13T09:08:53.381Z,10.53
2022-11-13T09:11:38.815Z,7.35
2022-11-13T09:14:25.131Z,7.13
2022-11-13T09:17:10.580Z,9.89
2022-11-13T09:19:59.513Z,7.52
2022-11-13T09:22:47.794Z,9.78
2022-11-13T09:25:37.929Z,6.69
2022-11-13T09:28:23.736Z,9.16
2022-11-13T09:31:09.197Z,9.29
2022-11-13T09:33:54.487Z,6.24
2022-11-13T09:36:39.823Z,9.14
2022-11-13T09:39:25.413Z,9.75
2022-11-13T09:42:24.666Z,9.78
2022-11-13T09:45:15.837Z,10.72
2022-11-13T09:48:24.301Z,8.11
2022-11-13T09:51:32.642Z,9.26
2022-11-13T09:54:18.644Z,8.81
2022-11-13T09:57:03.817Z,11.20
2022-11-13T09:59:52.705Z,12.35
2022-11-13T10:02:56.621Z,11.61
2022-11-13T10:05:51.384Z,8.10
2022-11-13T10:08:53.353Z,12.64
2022-11-13T10:11:38.720Z,13.37
2022-11-13T10:14:34.503Z,15.46
2022-11-13T10:17:29.392Z,13.60
2022-11-13T10:20:22.768Z,14.64
2022-11-13T10:23:21.965Z,10.20
2022-11-13T10:26:19.493Z,10.98
2022-11-13T10:29:14.745Z,11.74
2022-11-13T10:32:16.242Z,12.64
2022-11-13T10:35:33.196Z,11.23
2022-11-13T10:38:24.636Z,11.00
2022-11-13T10:41:12.828Z,12.97
2022-11-13T10:44:03.134Z,12.51
2022-11-13T10:46:48.811Z,10.65
2022-11-13T10:49:33.760Z,12.62
2022-11-13T10:52:29.815Z,10.67
2022-11-13T10:55:37.049Z,10.93
2022-11-13T10:58:22.201Z,10.17
2022-11-13T11:01:16.356Z,12.01
2022-11-13T11:04:06.518Z,12.54
2022-11-13T11:09:57.564Z,13.15
2022-11-13T11:12:43.035Z,12.32
2022-11-13T11:15:45.238Z,8.90
2022-11-13T11:18:54.038Z,10.35
2022-11-13T11:21:41.885Z,9.32
2022-11-13T11:24:36.788Z,10.99
2022-11-13T11:27:27.890Z,11.74
2022-11-13T11:30:26.588Z,10.72
2022-11-13T11:33:20.056Z,10.61
2022-11-13T11:36:30.781Z,9.76
2022-11-13T11:39:19.488Z,8.55
2022-11-13T11:42:38.614Z,8.03
2022-11-13T11:45:31.529Z,9.45
2022-11-13T11:48:20.671Z,9.74
2022-11-13T11:51:15.416Z,10.73
2022-11-13T11:54:04.087Z,10.98
2022-11-13T11:56:53.729Z,6.40
2022-11-13T11:59:58.097Z,8.32
2022-11-13T12:03:07.871Z,8.01
2022-11-13T12:06:30.833Z,12.44
2022-11-13T12:09:24.566Z,12.98
2022-11-13T12:12:25.036Z,10.66
2022-11-13T12:15:37.349Z,12.61
2022-11-13T12:18:55.057Z,12.62
2022-11-13T12:21:46.935Z,13.97
2022-11-13T12:24:50.545Z,14.70
2022-11-13T12:27:47.253Z,11.99
2022-11-13T12:30:57.676Z,13.73
2022-11-13T12:33:45.621Z,10.94
2022-11-13T12:36:32.182Z,13.09
2022-11-13T12:39:26.468Z,13.40
2022-11-13T12:42:27.960Z,10.96
2022-11-13T12:45:22.075Z,12.20
2022-11-13T12:48:26.083Z,12.14
2022-11-13T12:51:17.320Z,10.20
2022-11-13T12:54:03.437Z,11.88
2022-11-13T12:56:49.315Z,12.89
2022-11-13T12:59:38.356Z,13.14
2022-11-13T13:02:29.720Z,13.08
2022-11-13T13:05:38.094Z,10.44
2022-11-13T13:08:55.137Z,13.48
2022-11-13T13:12:15.030Z,12.12
2022-11-13T13:15:22.970Z,11.97
2022-11-13T13:18:12.987Z,16.31
2022-11-13T13:21:09.027Z,14.48
2022-11-13T13:23:54.281Z,15.35
2022-11-13T13:26:47.686Z,14.17
2022-11-13T13:29:34.204Z,14.85
2022-11-13T13:32:43.498Z,12.80
2022-11-13T13:35:47.591Z,13.99
2022-11-13T13:38:51.874Z,14.48
2022-11-13T13:42:11.368Z,12.77
2022-11-13T13:45:25.540Z,13.09
2022-11-13T13:48:13.829Z,15.60
2022-11-13T13:51:01.303Z,15.03
2022-11-13T13:53:48.915Z,13.95
2022-11-13T13:56:40.701Z,12.51
2022-11-13T13:59:29.419Z,12.49
2022-11-13T14:02:20.653Z,11.59
2022-11-13T14:05:28.002Z,12.52
2022-11-13T14:08:25.072Z,13.96
2022-11-13T14:11:27.194Z,9.73
2022-11-13T14:14:22.989Z,8.84
2022-11-13T14:17:12.524Z,11.16
2022-11-13T14:20:01.231Z,13.11
2022-11-13T14:22:55.353Z,9.50
2022-11-13T14:25:43.338Z,12.67
2022-11-13T14:28:32.388Z,11.70
2022-11-13T14:31:18.798Z,13.02
2022-11-13T14:34:11.540Z,11.34
2022-11-13T14:37:05.913Z,11.89
2022-11-13T14:39:52.644Z,12.81
2022-11-13T14:42:44.001Z,11.82
2022-11-13T14:45:31.976Z,12.55
2022-11-13T14:48:29.041Z,10.90
2022-11-13T14:51:25.298Z,9.15
2022-11-13T14:54:53.225Z,10.89
2022-11-13T14:57:48.265Z,12.56
2022-11-13T15:00:36.390Z,12.43
2022-11-13T15:03:21.763Z,12.24
2022-11-13T15:06:20.343Z,10.71
2022-11-13T15:09:15.437Z,11.10
2022-11-13T15:12:00.905Z,11.74
2022-11-13T15:14:46.138Z,12.04
2022-11-13T15:17:32.344Z,11.26
2022-11-13T15:20:26.477Z,10.68
2022-11-13T15:23:15.579Z,12.21
2022-11-13T15:26:00.794Z,12.12
2022-11-13T15:28:46.021Z,10.91
2022-11-13T15:31:37.852Z,11.70
2022-11-13T15:34:23.446Z,11.11
2022-11-13T15:37:13.834Z,10.98
2022-11-13T15:39:58.973Z,11.86
2022-11-13T15:42:44.855Z,10.72
2022-11-13T15:45:30.521Z,11.01
2022-11-13T15:48:15.659Z,11.99
2022-11-13T15:51:01.182Z,10.33
2022-11-13T15:53:51.758Z,10.48
2022-11-13T15:56:37.115Z,10.70
2022-11-13T15:59:22.249Z,10.90
2022-11-13T16:02:09.384Z,10.51
2022-11-13T16:04:57.103Z,10.22
2022-11-13T16:07:43.533Z,11.48
2022-11-13T16:10:28.861Z,11.54
2022-11-13T16:13:14.161Z,11.33
2022-11-13T16:16:00.908Z,9.39
2022-11-13T16:18:46.488Z,9.58
2022-11-13T16:21:32.605Z,10.67
2022-11-13T16:24:22.698Z,9.09
2022-11-13T16:27:14.325Z,9.65
2022-11-13T16:30:03.972Z,10.01
2022-11-13T16:32:52.184Z,9.19
2022-11-13T16:35:38.043Z,11.17
2022-11-13T16:38:23.532Z,9.16
2022-11-13T16:41:10.907Z,10.02
2022-11-13T16:43:56.189Z,11.13
2022-11-13T16:46:45.339Z,10.05
2022-11-13T16:49:30.364Z,9.17
2022-11-13T16:52:15.948Z,7.22
2022-11-13T16:55:06.104Z,8.04
2022-11-13T16:57:51.955Z,9.42
2022-11-13T17:00:37.429Z,8.30
2022-11-13T17:03:22.917Z,9.06
2022-11-13T17:06:22.272Z,10.21
2022-11-13T17:09:07.991Z,10.41
2022-11-13T17:11:53.232Z,11.59
2022-11-13T17:14:38.873Z,7.46
2022-11-13T17:20:10.532Z,9.10
2022-11-13T17:22:56.224Z,9.40
2022-11-13T17:25:42.121Z,11.16
2022-11-13T17:28:27.377Z,8.99
2022-11-13T17:31:12.889Z,9.78
2022-11-13T17:33:58.273Z,9.09
2022-11-13T17:36:43.562Z,10.01
2022-11-13T17:39:29.009Z,10.26
2022-11-13T17:42:14.336Z,10.09
2022-11-13T17:44:59.560Z,10.63
2022-11-13T17:47:44.977Z,8.92
2022-11-13T17:50:30.317Z,9.52
2022-11-13T17:53:15.336Z,10.32
2022-11-13T17:56:02.944Z,9.93
2022-11-13T17:58:47.983Z,9.54
2022-11-13T18:01:34.120Z,10.26
2022-11-13T18:04:20.867Z,9.26
2022-11-13T18:07:07.171Z,10.14
2022-11-13T18:09:52.830Z,10.25
2022-11-13T18:12:38.219Z,10.16
2022-11-13T18:15:24.146Z,10.19
2022-11-13T18:18:09.781Z,7.17
2022-11-13T18:20:55.025Z,9.15
2022-11-13T18:23:40.469Z,8.44
2022-11-13T18:26:27.270Z,9.43
2022-11-13T18:29:12.512Z,7.30
2022-11-13T18:31:57.859Z,9.17
2022-11-13T18:34:43.114Z,9.77
2022-11-13T18:37:28.855Z,9.25
2022-11-13T18:40:14.355Z,9.08
2022-11-13T18:42:59.775Z,5.31
2022-11-13T18:45:55.912Z,8.15
2022-11-13T18:48:43.000Z,8.25
2022-11-13T18:51:29.878Z,8.45
2022-11-13T18:54:15.444Z,8.79
2022-11-13T18:57:00.897Z,6.18
2022-11-13T18:59:46.187Z,5.85
2022-11-13T19:02:31.637Z,5.64
2022-11-13T19:05:17.063Z,8.35
2022-11-13T19:08:02.245Z,8.13
2022-11-13T19:10:47.769Z,7.25
2022-11-13T19:13:34.829Z,8.64
2022-11-13T19:16:31.425Z,9.00
2022-11-13T19:19:23.306Z,9.18
2022-11-13T19:22:08.837Z,7.86
2022-11-13T19:24:53.883Z,7.80
2022-11-13T19:27:39.410Z,7.84
2022-11-13T19:30:24.809Z,8.73
2022-11-13T19:33:10.253Z,7.27
2022-11-13T19:35:55.856Z,8.44
2022-11-13T19:38:41.905Z,8.20
2022-11-13T19:41:29.119Z,6.96
2022-11-13T19:44:14.776Z,7.99
2022-11-13T19:47:00.087Z,6.47
2022-11-13T19:49:45.343Z,3.58
2022-11-13T19:52:30.628Z,7.01
2022-11-13T19:55:15.982Z,6.48
2022-11-13T19:58:01.597Z,6.92
2022-11-13T20:00:46.557Z,6.35
2022-11-13T20:03:31.824Z,6.50
2022-11-13T20:06:17.742Z,5.72
2022-11-13T20:09:03.430Z,7.43
2022-11-13T20:11:48.894Z,7.21
2022-11-13T20:14:38.090Z,6.62
2022-11-13T20:17:23.990Z,7.65
2022-11-13T20:20:09.541Z,6.56
2022-11-13T20:22:54.772Z,6.83
2022-11-13T20:25:39.759Z,4.94
2022-11-13T20:28:25.472Z,7.26
2022-11-13T20:31:14.289Z,7.12
2022-11-13T20:33:59.262Z,6.64
2022-11-13T20:36:44.817Z,6.74
2022-11-13T20:39:30.048Z,5.27
2022-11-13T20:42:15.212Z,6.19
2022-11-13T20:45:01.520Z,7.59
2022-11-13T20:47:46.884Z,6.38
2022-11-13T20:50:35.896Z,6.79
2022-11-13T20:53:22.183Z,6.35
2022-11-13T20:56:08.892Z,5.84
2022-11-13T20:58:54.587Z,5.17
2022-11-13T21:01:39.894Z,4.69
2022-11-13T21:04:24.993Z,6.00
2022-11-13T21:07:10.506Z,5.33
2022-11-13T21:09:55.709Z,6.76
2022-11-13T21:12:41.129Z,6.94
2022-11-13T21:15:26.420Z,8.04
2022-11-13T21:18:11.915Z,6.30
2022-11-13T21:21:08.273Z,5.81
2022-11-13T21:23:57.893Z,7.58
2022-11-13T21:26:43.373Z,7.39
2022-11-13T21:29:28.731Z,5.21
2022-11-13T21:32:14.160Z,5.49
2022-11-13T21:34:59.488Z,5.96
2022-11-13T21:37:44.763Z,5.75
2022-11-13T21:40:30.184Z,7.30
2022-11-13T21:43:15.456Z,6.37
2022-11-13T21:46:07.445Z,6.84
2022-11-13T21:48:58.614Z,6.67
2022-11-13T21:51:44.068Z,7.26
2022-11-13T21:54:29.346Z,7.39
2022-11-13T21:57:14.723Z,7.05
2022-11-13T22:00:00.239Z,7.57
2022-11-13T22:02:45.597Z,5.86
2022-11-13T22:05:31.081Z,7.26
2022-11-13T22:08:16.496Z,7.65
2022-11-13T22:11:01.991Z,5.31
2022-11-13T22:13:48.129Z,5.96
2022-11-13T22:16:34.858Z,5.58
2022-11-13T22:19:25.579Z,6.87
2022-11-13T22:22:13.033Z,7.10
2022-11-13T22:24:58.336Z,7.76
2022-11-13T22:27:43.581Z,6.64
2022-11-13T22:30:28.975Z,6.79
2022-11-13T22:33:14.344Z,6.42
2022-11-13T22:36:08.436Z,6.81
2022-11-13T22:38:55.249Z,5.74
2022-11-13T22:41:40.681Z,6.26
2022-11-13T22:44:31.705Z,3.55
2022-11-13T22:47:35.678Z,5.64
2022-11-13T22:50:23.586Z,6.57
2022-11-13T22:53:09.011Z,7.02
2022-11-13T22:55:54.373Z,3.27
2022-11-13T22:58:40.260Z,6.22
2022-11-13T23:01:28.242Z,6.02
2022-11-13T23:04:13.896Z,6.71
2022-11-13T23:06:59.357Z,5.97
2022-11-13T23:09:44.629Z,6.05
2022-11-13T23:12:30.421Z,6.21
2022-11-13T23:15:15.752Z,6.15
2022-11-13T23:18:03.524Z,3.57
2022-11-13T23:20:50.734Z,3.90
2022-11-13T23:23:37.378Z,4.76
2022-11-13T23:26:24.243Z,5.74
2022-11-13T23:29:11.121Z,4.43
2022-11-13T23:31:56.614Z,5.00
2022-11-13T23:34:58.633Z,5.43
2022-11-13T23:37:44.954Z,5.01
2022-11-13T23:40:30.245Z,4.70
2022-11-13T23:43:15.444Z,3.40
2022-11-13T23:46:00.831Z,2.80
2022-11-13T23:48:46.022Z,2.57
2022-11-13T23:51:31.518Z,4.17
2022-11-13T23:54:16.817Z,4.95
2022-11-13T23:57:02.013Z,4.81
2022-11-13T23:59:47.281Z,5.49
